Time;durP1;ratioP1;P1;durP2;ratioP2;P2;SDS_P1;SDS_P2;PMS_P1;PMS_P2;Temp;Humidity;BMP_temperature;BMP_pressure;BME280_temperature;BME280_humidity;BME280_pressure;Samples;Min_cycle;Max_cycle;Signal;HPM_P1;HPM_P2
2023/08/18 00:00:08;;;;;;;18.85;13.13;;;;;;;;;;4883449;29;20036;-78
2023/08/18 00:02:35;;;;;;;19.02;13.52;;;;;;;;;;4915359;29;20491;-79
2023/08/18 00:05:00;;;;;;;23.38;15.07;;;;;;;;;;4915584;29;20036;-78
2023/08/18 00:07:26;;;;;;;19.10;14.23;;;;;;;;;;4915439;29;20061;-79
2023/08/18 00:09:51;;;;;;;22.80;15.10;;;;;;;;;;4898625;29;20063;-78
2023/08/18 00:12:17;;;;;;;23.55;13.77;;;;;;;;;;4915395;29;20515;-78
2023/08/18 00:14:42;;;;;;;24.23;15.50;;;;;;;;;;4915489;29;20040;-78
2023/08/18 00:17:08;;;;;;;23.35;16.33;;;;;;;;;;4898431;29;20119;-78
2023/08/18 00:19:33;;;;;;;22.85;15.80;;;;;;;;;;4915461;29;20111;-78
2023/08/18 00:21:59;;;;;;;21.83;13.95;;;;;;;;;;4914217;29;20563;-78
2023/08/18 00:24:24;;;;;;;23.83;15.48;;;;;;;;;;4915382;29;20028;-78
2023/08/18 00:26:50;;;;;;;23.60;15.35;;;;;;;;;;4915870;29;20051;-78
2023/08/18 00:29:15;;;;;;;23.25;17.38;;;;;;;;;;4916387;29;20028;-78
2023/08/18 00:31:41;;;;;;;26.58;17.05;;;;;;;;;;4916712;29;20036;-78
2023/08/18 00:34:06;;;;;;;25.75;16.30;;;;;;;;;;4913259;29;20050;-78
2023/08/18 00:36:32;;;;;;;27.50;17.27;;;;;;;;;;4920262;29;20043;-77
2023/08/18 00:38:58;;;;;;;22.85;17.23;;;;;;;;;;4932250;29;20040;-79
2023/08/18 00:41:26;;;;;;;26.92;20.02;;;;;;;;;;4934644;29;20039;-80
2023/08/18 00:43:51;;;;;;;30.67;19.73;;;;;;;;;;4928600;29;20036;-80
2023/08/18 00:46:18;;;;;;;30.17;18.50;;;;;;;;;;4928910;29;20119;-77
2023/08/18 00:48:43;;;;;;;32.15;18.55;;;;;;;;;;4912121;29;20118;-78
2023/08/18 00:51:10;;;;;;;25.52;16.92;;;;;;;;;;4915814;29;20063;-79
2023/08/18 00:53:36;;;;;;;29.50;18.02;;;;;;;;;;4915074;29;20032;-79
2023/08/18 00:56:02;;;;;;;29.75;16.83;;;;;;;;;;4900558;29;20440;-77
2023/08/18 00:58:29;;;;;;;28.08;18.42;;;;;;;;;;4902086;29;20025;-78
2023/08/18 01:00:54;;;;;;;26.08;18.05;;;;;;;;;;4919109;29;20051;-77
2023/08/18 01:03:20;;;;;;;27.85;19.48;;;;;;;;;;4886544;29;20446;-77
2023/08/18 01:05:46;;;;;;;28.52;19.20;;;;;;;;;;4917417;29;20093;-78
2023/08/18 01:08:12;;;;;;;32.63;17.73;;;;;;;;;;4918265;29;20488;-77
2023/08/18 01:10:49;;;;;;;33.20;18.25;;;;;;;;;;4918376;29;20056;-77
2023/08/18 01:13:31;;;;;;;26.80;18.90;;;;;;;;;;4918234;29;20036;-77
2023/08/18 01:15:58;;;;;;;34.85;20.58;;;;;;;;;;4918146;29;20272;-78
2023/08/18 01:18:25;;;;;;;29.33;19.00;;;;;;;;;;4885723;29;20032;-79
2023/08/18 01:20:53;;;;;;;33.58;19.77;;;;;;;;;;4918170;29;20404;-78
2023/08/18 01:23:19;;;;;;;27.65;17.77;;;;;;;;;;4918810;29;20123;-78
2023/08/18 01:25:44;;;;;;;28.83;18.23;;;;;;;;;;4918070;29;20107;-77
2023/08/18 01:28:10;;;;;;;30.85;18.25;;;;;;;;;;4885683;29;20481;-78
2023/08/18 01:30:43;;;;;;;25.42;16.88;;;;;;;;;;4903745;29;20071;-78
2023/08/18 01:33:32;;;;;;;25.35;17.17;;;;;;;;;;4919985;29;20111;-77
2023/08/18 01:36:02;;;;;;;27.92;17.15;;;;;;;;;;4886125;29;20525;-79
2023/08/18 01:38:30;;;;;;;28.58;18.42;;;;;;;;;;4901079;29;20095;-78
2023/08/18 01:40:56;;;;;;;27.90;18.48;;;;;;;;;;4918214;29;20036;-78
2023/08/18 01:43:22;;;;;;;28.70;17.40;;;;;;;;;;4916701;29;20040;-78
2023/08/18 01:45:47;;;;;;;26.25;18.88;;;;;;;;;;4918239;29;20095;-76
2023/08/18 01:48:13;;;;;;;27.70;19.95;;;;;;;;;;4918305;29;20028;-77
2023/08/18 01:50:38;;;;;;;30.35;21.50;;;;;;;;;;4917206;29;20028;-78
2023/08/18 01:53:04;;;;;;;31.98;20.00;;;;;;;;;;4900934;29;20046;-78
2023/08/18 01:55:29;;;;;;;29.05;21.90;;;;;;;;;;4917815;29;20051;-77
2023/08/18 01:57:55;;;;;;;31.80;21.40;;;;;;;;;;4916517;29;20096;-78
2023/08/18 02:00:20;;;;;;;35.65;20.20;;;;;;;;;;4884935;29;20032;-77
2023/08/18 02:02:46;;;;;;;33.35;22.00;;;;;;;;;;4900171;29;20043;-78
2023/08/18 02:05:12;;;;;;;32.67;21.02;;;;;;;;;;4917264;29;20024;-78
2023/08/18 02:07:39;;;;;;;29.88;20.65;;;;;;;;;;4883862;29;20064;-77
2023/08/18 02:10:05;;;;;;;31.52;22.15;;;;;;;;;;4917341;29;20032;-78
2023/08/18 02:12:30;;;;;;;32.85;21.10;;;;;;;;;;4900130;29;20511;-78
2023/08/18 02:14:56;;;;;;;32.35;22.27;;;;;;;;;;4884638;29;20119;-77
2023/08/18 02:17:22;;;;;;;30.90;21.65;;;;;;;;;;4900380;29;20404;-76
2023/08/18 02:19:47;;;;;;;26.95;19.60;;;;;;;;;;4915850;29;20028;-78
2023/08/18 02:22:13;;;;;;;33.15;21.00;;;;;;;;;;4868679;29;20043;-77
2023/08/18 02:24:38;;;;;;;29.83;20.10;;;;;;;;;;4916877;29;20079;-78
2023/08/18 02:27:04;;;;;;;30.63;20.73;;;;;;;;;;4915745;29;20043;-78
2023/08/18 02:29:30;;;;;;;30.45;22.73;;;;;;;;;;4916948;29;20468;-78
2023/08/18 02:31:56;;;;;;;37.65;24.35;;;;;;;;;;4916754;29;20043;-77
2023/08/18 02:34:21;;;;;;;37.90;23.05;;;;;;;;;;4916582;29;20043;-77
2023/08/18 02:36:47;;;;;;;36.42;23.27;;;;;;;;;;4899859;29;20841;-79
2023/08/18 02:39:12;;;;;;;50.13;26.40;;;;;;;;;;4916635;29;20055;-78
2023/08/18 02:41:38;;;;;;;43.08;26.40;;;;;;;;;;4916498;29;20043;-77
2023/08/18 02:44:03;;;;;;;42.20;26.55;;;;;;;;;;4915264;29;20137;-76
2023/08/18 02:46:29;;;;;;;43.95;27.02;;;;;;;;;;4884194;29;20488;-78
2023/08/18 02:48:54;;;;;;;48.53;28.60;;;;;;;;;;4915310;29;20070;-78
2023/08/18 02:51:20;;;;;;;53.55;28.52;;;;;;;;;;4916491;29;20028;-78
2023/08/18 02:53:48;;;;;;;50.78;28.65;;;;;;;;;;4916325;29;20040;-78
2023/08/18 02:56:15;;;;;;;47.55;28.00;;;;;;;;;;4916594;29;20028;-78
2023/08/18 02:58:41;;;;;;;47.42;27.67;;;;;;;;;;4916512;29;20035;-79
2023/08/18 03:01:08;;;;;;;56.25;29.17;;;;;;;;;;4915458;29;20031;-78
2023/08/18 03:03:34;;;;;;;54.25;28.08;;;;;;;;;;4915948;29;20036;-78
2023/08/18 03:06:00;;;;;;;50.22;27.23;;;;;;;;;;4885489;29;20481;-77
2023/08/18 03:08:25;;;;;;;56.08;27.02;;;;;;;;;;4919357;29;20070;-77
2023/08/18 03:10:58;;;;;;;59.50;28.85;;;;;;;;;;4932679;29;20024;-77
2023/08/18 03:13:24;;;;;;;60.60;27.40;;;;;;;;;;4937229;29;20020;-77
2023/08/18 03:15:49;;;;;;;51.78;27.23;;;;;;;;;;4937574;29;20031;-79
2023/08/18 03:18:15;;;;;;;58.85;28.08;;;;;;;;;;4902115;29;20051;-78
2023/08/18 03:20:41;;;;;;;63.20;26.90;;;;;;;;;;4932147;29;20024;-78
2023/08/18 03:23:07;;;;;;;55.95;26.77;;;;;;;;;;4923248;29;20131;-77
2023/08/18 03:25:32;;;;;;;53.80;27.63;;;;;;;;;;4914950;29;20052;-78
2023/08/18 03:27:58;;;;;;;57.78;27.77;;;;;;;;;;4914742;29;20151;-78
2023/08/18 03:30:23;;;;;;;67.18;30.27;;;;;;;;;;4899276;29;20031;-77
2023/08/18 03:32:51;;;;;;;59.42;29.52;;;;;;;;;;4883884;29;20043;-78
2023/08/18 03:35:17;;;;;;;66.95;29.48;;;;;;;;;;4915386;29;20040;-79
2023/08/18 03:37:43;;;;;;;74.38;30.35;;;;;;;;;;4915731;29;20038;-78
2023/08/18 03:40:09;;;;;;;67.40;29.58;;;;;;;;;;4917116;29;20031;-78
2023/08/18 03:42:35;;;;;;;75.40;31.50;;;;;;;;;;4900749;29;20032;-77
2023/08/18 03:45:01;;;;;;;83.28;31.90;;;;;;;;;;4918860;29;20080;-78
2023/08/18 03:47:27;;;;;;;69.47;30.58;;;;;;;;;;4909279;29;20040;-78
2023/08/18 03:49:53;;;;;;;66.07;29.55;;;;;;;;;;4921862;29;20113;-78
2023/08/18 03:52:19;;;;;;;70.28;31.80;;;;;;;;;;4914556;29;20036;-77
2023/08/18 03:54:44;;;;;;;79.22;33.75;;;;;;;;;;4914430;29;20028;-78
2023/08/18 03:57:10;;;;;;;83.93;32.30;;;;;;;;;;4898835;29;20415;-79
2023/08/18 03:59:35;;;;;;;89.28;34.25;;;;;;;;;;4915936;29;20039;-78
2023/08/18 04:02:01;;;;;;;90.18;33.88;;;;;;;;;;4915728;29;20115;-79
2023/08/18 04:04:26;;;;;;;76.40;33.58;;;;;;;;;;4914487;29;20032;-78
2023/08/18 04:06:52;;;;;;;82.43;34.13;;;;;;;;;;4914632;29;20556;-78
2023/08/18 04:09:17;;;;;;;89.25;34.30;;;;;;;;;;4899060;29;20577;-78
2023/08/18 04:11:43;;;;;;;91.10;35.85;;;;;;;;;;4916267;29;20032;-77
2023/08/18 04:14:09;;;;;;;91.50;34.88;;;;;;;;;;4914612;29;20028;-77
2023/08/18 04:16:36;;;;;;;94.88;36.67;;;;;;;;;;4914896;29;20092;-78
2023/08/18 04:19:03;;;;;;;103.90;37.05;;;;;;;;;;4915753;29;20449;-77
2023/08/18 04:21:30;;;;;;;95.17;35.60;;;;;;;;;;4914400;29;20373;-79
2023/08/18 04:23:55;;;;;;;94.53;34.92;;;;;;;;;;4898477;29;20277;-78
2023/08/18 04:26:21;;;;;;;100.55;35.50;;;;;;;;;;4914441;29;20067;-79
2023/08/18 04:28:47;;;;;;;108.55;38.67;;;;;;;;;;4914239;29;20048;-79
2023/08/18 04:31:13;;;;;;;99.05;37.33;;;;;;;;;;4901121;29;20043;-79
2023/08/18 04:33:43;;;;;;;92.18;35.40;;;;;;;;;;4917846;29;20020;-77
2023/08/18 04:36:12;;;;;;;102.30;34.85;;;;;;;;;;4902354;29;20046;-79
2023/08/18 04:38:39;;;;;;;91.25;35.78;;;;;;;;;;4917765;29;20028;-79
2023/08/18 04:41:09;;;;;;;99.82;35.40;;;;;;;;;;4901955;29;20419;-79
2023/08/18 04:43:34;;;;;;;103.40;35.95;;;;;;;;;;4902145;29;20055;-79
2023/08/18 04:46:01;;;;;;;115.10;36.03;;;;;;;;;;4917525;29;20499;-79
2023/08/18 04:48:27;;;;;;;96.15;36.95;;;;;;;;;;4917624;29;20036;-79
2023/08/18 04:50:53;;;;;;;112.75;37.17;;;;;;;;;;4918892;29;20084;-78
2023/08/18 04:53:19;;;;;;;117.47;37.33;;;;;;;;;;4917092;29;20043;-78
2023/08/18 04:55:45;;;;;;;117.22;38.17;;;;;;;;;;4917471;29;20493;-79
2023/08/18 04:58:13;;;;;;;104.68;36.25;;;;;;;;;;4917352;29;20080;-79
2023/08/18 05:00:39;;;;;;;;;;;;;;;;;;4902179;29;20028;-78
2023/08/18 05:03:05;;;;;;;114.32;39.22;;;;;;;;;;4885678;29;20381;-78
2023/08/18 05:05:33;;;;;;;132.57;37.97;;;;;;;;;;4901548;29;20029;-78
2023/08/18 05:07:58;;;;;;;119.00;39.67;;;;;;;;;;4901221;29;20048;-78
2023/08/18 05:10:24;;;;;;;110.95;40.33;;;;;;;;;;4918693;29;20063;-78
2023/08/18 05:12:49;;;;;;;151.60;39.75;;;;;;;;;;4901569;29;20518;-78
2023/08/18 05:15:16;;;;;;;104.47;38.15;;;;;;;;;;4918440;29;20095;-78
2023/08/18 05:17:42;;;;;;;134.40;39.58;;;;;;;;;;4917407;29;20032;-79
2023/08/18 05:20:07;;;;;;;135.43;39.72;;;;;;;;;;4901793;29;20035;-77
2023/08/18 05:22:33;;;;;;;131.65;40.95;;;;;;;;;;4918262;29;20068;-78
2023/08/18 05:24:58;;;;;;;95.93;38.78;;;;;;;;;;4918256;29;20080;-77
2023/08/18 05:27:24;;;;;;;127.68;40.42;;;;;;;;;;4918431;29;20503;-77
2023/08/18 05:29:51;;;;;;;125.55;39.58;;;;;;;;;;4918650;29;20060;-78
2023/08/18 05:32:16;;;;;;;126.85;40.53;;;;;;;;;;4917190;29;20032;-78
2023/08/18 05:34:42;;;;;;;137.77;41.50;;;;;;;;;;4918859;29;20035;-79
2023/08/18 05:37:07;;;;;;;99.03;39.15;;;;;;;;;;4918619;29;20492;-79
2023/08/18 05:39:33;;;;;;;128.75;42.17;;;;;;;;;;4919087;29;20036;-76
2023/08/18 05:41:58;;;;;;;104.30;40.00;;;;;;;;;;4919587;29;20031;-78
2023/08/18 05:44:24;;;;;;;99.10;37.08;;;;;;;;;;4934295;29;20074;-78
2023/08/18 05:46:50;;;;;;;93.63;37.47;;;;;;;;;;4922234;29;20028;-78
2023/08/18 05:49:15;;;;;;;117.10;38.97;;;;;;;;;;4922192;29;20028;-77
2023/08/18 05:51:44;;;;;;;139.57;41.22;;;;;;;;;;4937416;29;20036;-77
2023/08/18 05:54:12;;;;;;;137.85;42.75;;;;;;;;;;4935398;29;20064;-78
2023/08/18 05:56:37;;;;;;;118.43;39.53;;;;;;;;;;4924559;29;20344;-79
2023/08/18 05:59:04;;;;;;;132.20;40.15;;;;;;;;;;4918093;29;20028;-78
2023/08/18 06:01:30;;;;;;;123.10;41.38;;;;;;;;;;4901192;29;20040;-78
2023/08/18 06:03:55;;;;;;;112.13;39.75;;;;;;;;;;4900498;29;20076;-78
2023/08/18 06:06:21;;;;;;;137.40;40.35;;;;;;;;;;4900741;29;20024;-80
2023/08/18 06:08:46;;;;;;;93.50;38.13;;;;;;;;;;4917343;29;20522;-79
2023/08/18 06:11:12;;;;;;;127.20;41.10;;;;;;;;;;4884955;29;20033;-77
2023/08/18 06:13:37;;;;;;;115.80;38.47;;;;;;;;;;4900551;29;20036;-78
2023/08/18 06:16:04;;;;;;;103.45;39.10;;;;;;;;;;4918453;29;20036;-78
2023/08/18 06:18:29;;;;;;;97.88;39.05;;;;;;;;;;4917703;29;20079;-78
2023/08/18 06:20:55;;;;;;;70.22;35.33;;;;;;;;;;4917391;29;20056;-78
2023/08/18 06:23:20;;;;;;;98.90;39.25;;;;;;;;;;4917109;29;20095;-79
2023/08/18 06:25:46;;;;;;;130.77;41.60;;;;;;;;;;4900049;29;20084;-77
2023/08/18 06:28:11;;;;;;;139.52;43.08;;;;;;;;;;4917028;29;20056;-79
2023/08/18 06:30:37;;;;;;;148.70;42.80;;;;;;;;;;4900146;29;20047;-78
2023/08/18 06:33:03;;;;;;;160.00;46.83;;;;;;;;;;4917428;29;20035;-78
2023/08/18 06:35:28;;;;;;;125.68;44.35;;;;;;;;;;4917006;29;20165;-79
2023/08/18 06:37:54;;;;;;;117.95;42.28;;;;;;;;;;4899921;29;20051;-79
2023/08/18 06:40:19;;;;;;;156.48;47.53;;;;;;;;;;4900204;29;20032;-78
2023/08/18 06:42:45;;;;;;;156.15;46.03;;;;;;;;;;4916715;29;20043;-77
2023/08/18 06:45:10;;;;;;;104.93;42.47;;;;;;;;;;4900005;29;20036;-79
2023/08/18 06:47:36;;;;;;;131.45;42.42;;;;;;;;;;4899824;29;20089;-78
2023/08/18 06:50:05;;;;;;;127.13;44.50;;;;;;;;;;4900037;29;20032;-78
2023/08/18 06:52:31;;;;;;;113.43;43.10;;;;;;;;;;4916365;29;20114;-78
2023/08/18 06:54:56;;;;;;;87.13;37.80;;;;;;;;;;4916491;29;20119;-78
2023/08/18 06:57:22;;;;;;;118.80;41.60;;;;;;;;;;4899677;29;20036;-78
2023/08/18 06:59:48;;;;;;;97.65;39.05;;;;;;;;;;4899918;29;20574;-78
2023/08/18 07:02:13;;;;;;;85.28;37.30;;;;;;;;;;4916565;29;20449;-77
2023/08/18 07:04:39;;;;;;;100.55;39.20;;;;;;;;;;4915101;29;20692;-78
2023/08/18 07:07:04;;;;;;;92.72;37.95;;;;;;;;;;4915413;29;20035;-79
2023/08/18 07:09:30;;;;;;;124.57;43.80;;;;;;;;;;4914794;29;20372;-79
2023/08/18 07:11:55;;;;;;;114.93;42.55;;;;;;;;;;4884198;29;20459;-78
2023/08/18 07:14:21;;;;;;;147.82;45.70;;;;;;;;;;4914705;29;20040;-78
2023/08/18 07:16:46;;;;;;;219.18;49.28;;;;;;;;;;4916189;29;20032;-79
2023/08/18 07:19:12;;;;;;;178.80;49.53;;;;;;;;;;4868549;29;20064;-78
2023/08/18 07:21:37;;;;;;;260.67;56.67;;;;;;;;;;4915924;29;20116;-80
2023/08/18 07:24:03;;;;;;;238.98;54.10;;;;;;;;;;4898869;29;20058;-78
2023/08/18 07:26:29;;;;;;;229.63;51.70;;;;;;;;;;4899194;29;20372;-79
2023/08/18 07:28:55;;;;;;;276.60;53.22;;;;;;;;;;4899144;29;20377;-78
2023/08/18 07:31:21;;;;;;;219.70;49.55;;;;;;;;;;4916058;29;20035;-77
2023/08/18 07:33:47;;;;;;;181.80;48.42;;;;;;;;;;4916101;29;20036;-79
2023/08/18 07:36:12;;;;;;;282.05;54.17;;;;;;;;;;4915908;29;20032;-78
2023/08/18 07:38:38;;;;;;;223.15;50.17;;;;;;;;;;4898918;29;20179;-78
2023/08/18 07:41:03;;;;;;;212.82;52.05;;;;;;;;;;4898533;29;20032;-77
2023/08/18 07:43:29;;;;;;;203.15;51.88;;;;;;;;;;4915298;29;20404;-78
2023/08/18 07:45:58;;;;;;;191.85;48.83;;;;;;;;;;4915752;29;20055;-79
2023/08/18 07:48:23;;;;;;;239.82;50.85;;;;;;;;;;4915578;29;20028;-78
2023/08/18 07:50:49;;;;;;;261.60;53.58;;;;;;;;;;4914664;29;20032;-78
2023/08/18 07:53:15;;;;;;;247.23;52.38;;;;;;;;;;4898507;29;20060;-78
2023/08/18 07:55:40;;;;;;;288.27;54.85;;;;;;;;;;4915697;29;20036;-78
2023/08/18 07:58:06;;;;;;;197.52;50.80;;;;;;;;;;4915422;29;20515;-79
2023/08/18 08:00:33;;;;;;;210.07;51.00;;;;;;;;;;4915556;29;20110;-80
2023/08/18 08:02:58;;;;;;;301.15;58.70;;;;;;;;;;4898567;29;20028;-78
2023/08/18 08:05:24;;;;;;;296.20;58.42;;;;;;;;;;4918457;29;20084;-80
2023/08/18 08:07:50;;;;;;;297.27;58.08;;;;;;;;;;4902500;29;20508;-79
2023/08/18 08:10:16;;;;;;;287.83;57.50;;;;;;;;;;4919801;29;20032;-78
2023/08/18 08:12:42;;;;;;;213.27;54.63;;;;;;;;;;4891308;29;20039;-78
2023/08/18 08:15:09;;;;;;;279.05;63.55;;;;;;;;;;4890399;29;20058;-78
2023/08/18 08:17:34;;;;;;;187.07;51.90;;;;;;;;;;4917968;29;20032;-78
2023/08/18 08:20:01;;;;;;;112.95;43.08;;;;;;;;;;4939609;29;20115;-77
2023/08/18 08:22:27;;;;;;;128.27;43.80;;;;;;;;;;4923866;29;20036;-77
2023/08/18 08:24:55;;;;;;;127.78;42.38;;;;;;;;;;4934166;29;20051;-77
2023/08/18 08:27:21;;;;;;;184.27;51.92;;;;;;;;;;4906450;29;20024;-78
2023/08/18 08:29:47;;;;;;;210.35;54.85;;;;;;;;;;4888480;29;20059;-78
2023/08/18 08:32:12;;;;;;;171.23;52.58;;;;;;;;;;4919848;29;20024;-78
2023/08/18 08:34:39;;;;;;;209.68;55.72;;;;;;;;;;4919724;29;20043;-79
2023/08/18 08:37:04;;;;;;;201.32;55.10;;;;;;;;;;4920190;29;20036;-78
2023/08/18 08:39:30;;;;;;;191.35;53.95;;;;;;;;;;4919137;29;20039;-80
2023/08/18 08:41:55;;;;;;;154.60;49.92;;;;;;;;;;4920035;29;20512;-78
2023/08/18 08:44:21;;;;;;;155.35;53.08;;;;;;;;;;4920667;29;20035;-78
2023/08/18 08:46:47;;;;;;;157.60;51.10;;;;;;;;;;4920238;29;20534;-77
2023/08/18 08:49:12;;;;;;;148.40;47.85;;;;;;;;;;4919045;29;20128;-78
2023/08/18 08:51:40;;;;;;;126.43;46.60;;;;;;;;;;4918547;29;20075;-79
2023/08/18 08:54:07;;;;;;;131.27;44.63;;;;;;;;;;4918604;29;20028;-79
2023/08/18 08:56:34;;;;;;;127.65;42.78;;;;;;;;;;4901686;29;20044;-77
2023/08/18 08:59:00;;;;;;;109.30;39.70;;;;;;;;;;4901590;29;20036;-77
2023/08/18 09:01:26;;;;;;;129.10;43.38;;;;;;;;;;4901589;29;20103;-79
2023/08/18 09:03:52;;;;;;;142.95;44.40;;;;;;;;;;4901698;29;20122;-78
2023/08/18 09:06:17;;;;;;;161.13;45.78;;;;;;;;;;4918350;29;20043;-79
2023/08/18 09:08:43;;;;;;;130.25;42.58;;;;;;;;;;4899643;23;20044;-77
2023/08/18 09:11:10;;;;;;;132.90;41.83;;;;;;;;;;4901137;29;20048;-76
2023/08/18 09:13:35;;;;;;;83.95;38.03;;;;;;;;;;4917934;29;20100;-76
2023/08/18 09:16:06;;;;;;;89.97;37.53;;;;;;;;;;4884872;29;20067;-76
2023/08/18 09:18:32;;;;;;;87.05;37.58;;;;;;;;;;4869971;29;20060;-77
2023/08/18 09:20:57;;;;;;;102.95;39.53;;;;;;;;;;4901017;29;20032;-75
2023/08/18 09:23:26;;;;;;;76.55;36.35;;;;;;;;;;4917431;29;20036;-77
2023/08/18 09:25:51;;;;;;;58.25;30.70;;;;;;;;;;4917755;29;20083;-76
2023/08/18 09:28:17;;;;;;;60.35;32.28;;;;;;;;;;4916562;29;20029;-76
2023/08/18 09:30:43;;;;;;;72.32;34.78;;;;;;;;;;4917686;29;20120;-76
2023/08/18 09:33:08;;;;;;;60.17;33.45;;;;;;;;;;4917753;29;20032;-76
2023/08/18 09:35:34;;;;;;;52.83;29.58;;;;;;;;;;4900854;29;20028;-77
2023/08/18 09:38:03;;;;;;;58.30;32.13;;;;;;;;;;4917820;29;20032;-77
2023/08/18 09:40:28;;;;;;;;;;;;;;;;;;4901425;29;20483;-77
2023/08/18 09:42:54;;;;;;;63.95;31.88;;;;;;;;;;4900698;29;19966;-77
2023/08/18 09:45:22;;;;;;;64.78;32.92;;;;;;;;;;4917447;29;20059;-77
2023/08/18 09:47:51;;;;;;;60.47;32.40;;;;;;;;;;4900450;29;20032;-77
2023/08/18 09:50:19;;;;;;;48.88;29.15;;;;;;;;;;4869684;29;20040;-77
2023/08/18 09:52:48;;;;;;;60.38;32.85;;;;;;;;;;4900388;29;20043;-77
2023/08/18 09:55:14;;;;;;;56.67;33.08;;;;;;;;;;4884744;29;20047;-78
2023/08/18 09:57:58;;;;;;;41.22;27.27;;;;;;;;;;4900327;29;20032;-76
2023/08/18 10:00:25;;;;;;;48.20;27.70;;;;;;;;;;4900666;29;20032;-77
2023/08/18 10:02:52;;;;;;;54.67;29.33;;;;;;;;;;4884606;29;20039;-75
2023/08/18 10:05:18;;;;;;;54.60;32.17;;;;;;;;;;4900134;29;20036;-77
2023/08/18 10:07:44;;;;;;;50.15;29.13;;;;;;;;;;4900060;29;20035;-76
2023/08/18 10:10:11;;;;;;;53.97;31.27;;;;;;;;;;4900072;29;20043;-77
2023/08/18 10:12:36;;;;;;;58.78;31.30;;;;;;;;;;4916777;29;20104;-76
2023/08/18 10:15:02;;;;;;;52.30;30.30;;;;;;;;;;4869021;29;20431;-77
2023/08/18 10:17:28;;;;;;;50.35;29.95;;;;;;;;;;4900054;29;20028;-76
2023/08/18 10:19:54;;;;;;;52.63;31.48;;;;;;;;;;4900108;29;20096;-76
2023/08/18 10:22:21;;;;;;;56.63;31.75;;;;;;;;;;4917153;29;20506;-77
2023/08/18 10:24:47;;;;;;;49.85;29.73;;;;;;;;;;4900092;29;20024;-78
2023/08/18 10:27:28;;;;;;;47.67;27.85;;;;;;;;;;4899617;29;20039;-76
2023/08/18 10:29:59;;;;;;;47.55;29.50;;;;;;;;;;4899898;29;20158;-76
2023/08/18 10:32:25;;;;;;;41.88;26.90;;;;;;;;;;4915669;29;20051;-76
2023/08/18 10:34:51;;;;;;;43.97;28.42;;;;;;;;;;4917716;29;20467;-78
2023/08/18 10:37:20;;;;;;;51.45;30.00;;;;;;;;;;4917361;29;20032;-78
2023/08/18 10:39:45;;;;;;;45.20;29.45;;;;;;;;;;4917249;29;20036;-76
2023/08/18 10:42:13;;;;;;;50.63;30.15;;;;;;;;;;4900168;29;20127;-77
2023/08/18 10:44:39;;;;;;;;;;;;;;;;;;4902263;29;20032;-77
2023/08/18 10:47:24;;;;;;;44.58;28.27;;;;;;;;;;4903870;29;19918;-78
2023/08/18 10:49:57;;;;;;;50.78;30.88;;;;;;;;;;5127237;27;20439;-77
2023/08/18 10:52:23;;;;;;;51.30;30.63;;;;;;;;;;5100915;28;20036;-78
2023/08/18 10:54:49;;;;;;;41.25;27.48;;;;;;;;;;5102708;28;20042;-78
2023/08/18 10:57:14;;;;;;;45.20;29.30;;;;;;;;;;5104126;28;20063;-77
2023/08/18 10:59:40;;;;;;;37.88;26.85;;;;;;;;;;5102074;28;20028;-75
2023/08/18 11:02:06;;;;;;;37.83;26.17;;;;;;;;;;5102421;28;20121;-77
2023/08/18 11:04:31;;;;;;;41.80;26.88;;;;;;;;;;5098989;28;20030;-76
2023/08/18 11:06:57;;;;;;;39.35;26.80;;;;;;;;;;5089247;28;20060;-77
2023/08/18 11:09:22;;;;;;;33.33;24.65;;;;;;;;;;5089251;28;20548;-77
2023/08/18 11:11:48;;;;;;;38.30;24.27;;;;;;;;;;5089093;28;20394;-78
2023/08/18 11:14:13;;;;;;;37.63;25.95;;;;;;;;;;5088834;28;20028;-77
2023/08/18 11:16:39;;;;;;;39.05;27.13;;;;;;;;;;5089267;28;20039;-77
2023/08/18 11:19:05;;;;;;;36.30;23.92;;;;;;;;;;5088005;28;20399;-76
2023/08/18 11:21:32;;;;;;;34.83;25.48;;;;;;;;;;5088160;28;20028;-76
2023/08/18 11:23:58;;;;;;;41.07;27.53;;;;;;;;;;5088671;28;20032;-76
2023/08/18 11:26:24;;;;;;;37.28;26.83;;;;;;;;;;5054462;28;20321;-77
2023/08/18 11:28:50;;;;;;;32.63;22.63;;;;;;;;;;5087371;28;20111;-77
2023/08/18 11:31:16;;;;;;;29.77;21.73;;;;;;;;;;5088632;28;20259;-77
2023/08/18 11:33:41;;;;;;;30.20;22.70;;;;;;;;;;5086856;28;20036;-77
2023/08/18 11:36:09;;;;;;;28.00;19.88;;;;;;;;;;5088612;28;20029;-78
2023/08/18 11:38:35;;;;;;;27.08;19.15;;;;;;;;;;5087294;28;20101;-76
2023/08/18 11:41:00;;;;;;;26.65;21.15;;;;;;;;;;5053836;28;20495;-76
2023/08/18 11:43:29;;;;;;;;;;;;;;;;;;5087709;28;20028;-79
2023/08/18 11:45:54;;;;;;;21.13;16.85;;;;;;;;;;5087166;28;20371;-77
2023/08/18 11:48:20;;;;;;;24.75;18.67;;;;;;;;;;5094384;28;20036;-77
2023/08/18 11:50:46;;;;;;;24.95;19.23;;;;;;;;;;5107662;28;20451;-76
2023/08/18 11:53:11;;;;;;;28.98;17.73;;;;;;;;;;5107276;28;20024;-77
2023/08/18 11:55:41;;;;;;;21.95;15.68;;;;;;;;;;5108657;28;20074;-76
2023/08/18 11:58:08;;;;;;;22.55;17.20;;;;;;;;;;5108626;28;20123;-76
2023/08/18 12:00:35;;;;;;;21.35;16.77;;;;;;;;;;5099558;28;20024;-77
2023/08/18 12:03:03;;;;;;;24.23;18.30;;;;;;;;;;5093667;28;20036;-77
2023/08/18 12:05:28;;;;;;;22.33;17.35;;;;;;;;;;5076638;28;20113;-78
2023/08/18 12:07:54;;;;;;;27.73;18.60;;;;;;;;;;5076472;28;20039;-77
2023/08/18 12:10:20;;;;;;;23.50;17.13;;;;;;;;;;5060117;28;20051;-77
2023/08/18 12:12:49;;;;;;;24.02;17.40;;;;;;;;;;5093287;28;20101;-78
2023/08/18 12:15:15;;;;;;;23.05;16.33;;;;;;;;;;5094400;28;20028;-78
2023/08/18 12:17:40;;;;;;;18.05;14.80;;;;;;;;;;5093055;28;20031;-77
2023/08/18 12:20:07;;;;;;;19.88;14.93;;;;;;;;;;5094463;28;20038;-76
2023/08/18 12:22:32;;;;;;;18.95;14.82;;;;;;;;;;5092931;28;20487;-77
2023/08/18 12:24:58;;;;;;;18.17;14.32;;;;;;;;;;5092660;28;20113;-78
2023/08/18 12:27:26;;;;;;;19.98;14.18;;;;;;;;;;5076482;28;20036;-78
2023/08/18 12:29:52;;;;;;;17.23;14.23;;;;;;;;;;5075826;28;20556;-77
2023/08/18 12:32:17;;;;;;;18.08;14.00;;;;;;;;;;5092882;28;20036;-77
2023/08/18 12:34:43;;;;;;;18.58;13.68;;;;;;;;;;5094003;28;20395;-76
2023/08/18 12:37:08;;;;;;;18.95;14.63;;;;;;;;;;5092794;28;20028;-78
2023/08/18 12:39:34;;;;;;;15.85;12.77;;;;;;;;;;5094145;28;20035;-77
2023/08/18 12:41:59;;;;;;;19.10;13.38;;;;;;;;;;5075649;28;20042;-77
2023/08/18 12:44:25;;;;;;;17.58;13.43;;;;;;;;;;5093594;28;20394;-78
2023/08/18 12:46:50;;;;;;;14.40;12.18;;;;;;;;;;5092918;28;20111;-78
2023/08/18 12:49:16;;;;;;;14.25;11.00;;;;;;;;;;5092222;28;20448;-79
2023/08/18 12:51:41;;;;;;;15.68;12.70;;;;;;;;;;5092624;28;20119;-79
2023/08/18 12:54:07;;;;;;;14.80;11.85;;;;;;;;;;5093980;28;20027;-77
2023/08/18 12:56:33;;;;;;;16.60;11.60;;;;;;;;;;5075184;28;20124;-77
2023/08/18 12:58:58;;;;;;;13.27;11.40;;;;;;;;;;5075633;28;20040;-77
2023/08/18 13:01:24;;;;;;;14.52;10.88;;;;;;;;;;5092979;28;20032;-78
2023/08/18 13:03:49;;;;;;;15.05;9.98;;;;;;;;;;5076275;28;20485;-78
2023/08/18 13:06:15;;;;;;;15.35;11.05;;;;;;;;;;5080053;28;20422;-78
2023/08/18 13:08:41;;;;;;;12.73;9.23;;;;;;;;;;5097940;28;20112;-77
2023/08/18 13:11:06;;;;;;;11.68;9.48;;;;;;;;;;5066615;28;20115;-78
2023/08/18 13:13:32;;;;;;;16.70;10.57;;;;;;;;;;5083277;28;20367;-77
2023/08/18 13:15:57;;;;;;;11.07;9.57;;;;;;;;;;5098376;28;20028;-77
2023/08/18 13:18:23;;;;;;;16.73;11.13;;;;;;;;;;5096235;28;20032;-77
2023/08/18 13:20:48;;;;;;;13.73;11.18;;;;;;;;;;5094704;28;20040;-75
2023/08/18 13:23:14;;;;;;;16.67;11.82;;;;;;;;;;5099081;28;20031;-77
2023/08/18 13:25:40;;;;;;;12.90;10.50;;;;;;;;;;5102999;28;20036;-78
2023/08/18 13:28:06;;;;;;;15.15;10.15;;;;;;;;;;5103701;28;20035;-77
2023/08/18 13:30:34;;;;;;;15.93;10.75;;;;;;;;;;5104228;28;20421;-75
2023/08/18 13:32:59;;;;;;;12.32;9.95;;;;;;;;;;5102966;28;20114;-76
2023/08/18 13:35:25;;;;;;;11.63;9.05;;;;;;;;;;5084318;28;20056;-78
2023/08/18 13:37:51;;;;;;;12.52;9.73;;;;;;;;;;5096032;28;20085;-78
2023/08/18 13:40:16;;;;;;;12.93;8.90;;;;;;;;;;5092109;28;20027;-77
2023/08/18 13:42:42;;;;;;;13.18;10.50;;;;;;;;;;5074912;28;20027;-77
2023/08/18 13:45:08;;;;;;;12.10;9.80;;;;;;;;;;5091751;28;20028;-78
2023/08/18 13:47:33;;;;;;;15.40;9.77;;;;;;;;;;5092076;28;20402;-77
2023/08/18 13:49:59;;;;;;;14.30;9.15;;;;;;;;;;5091825;28;20036;-78
2023/08/18 13:52:24;;;;;;;12.32;8.95;;;;;;;;;;5091712;28;20016;-78
2023/08/18 13:54:50;;;;;;;10.70;9.20;;;;;;;;;;5091897;28;20106;-78
2023/08/18 13:57:17;;;;;;;16.70;9.20;;;;;;;;;;5091852;28;20019;-79
2023/08/18 13:59:44;;;;;;;10.05;8.73;;;;;;;;;;5091343;28;20036;-77
2023/08/18 14:02:10;;;;;;;10.48;7.93;;;;;;;;;;5092680;28;20051;-76
2023/08/18 14:04:36;;;;;;;13.25;9.63;;;;;;;;;;5092580;28;20039;-77
2023/08/18 14:07:02;;;;;;;10.35;8.48;;;;;;;;;;5091131;28;20040;-76
2023/08/18 14:09:27;;;;;;;11.27;8.43;;;;;;;;;;5092303;28;20046;-79